createdAt,value
2023-02-14T00:01:46.854Z,103135.84
2023-02-14T00:04:13.367Z,103125.28
2023-02-14T00:06:39.926Z,103128.63
2023-02-14T00:09:06.761Z,103130.50
2023-02-14T00:11:33.314Z,103122.47
2023-02-14T00:13:59.983Z,103125.94
2023-02-14T00:16:26.726Z,103125.94
2023-02-14T00:18:53.216Z,103119.06
2023-02-14T00:21:19.677Z,103127.97
2023-02-14T00:23:46.165Z,103136.97
2023-02-14T00:26:12.954Z,103128.25
2023-02-14T00:28:39.502Z,103131.78
2023-02-14T00:31:06.467Z,103120.06
2023-02-14T00:33:33.129Z,103121.22
2023-02-14T00:35:59.691Z,103115.00
2023-02-14T00:38:26.483Z,103122.06
2023-02-14T00:40:53.163Z,103120.53
2023-02-14T00:43:19.868Z,103122.38
2023-02-14T00:45:46.324Z,103122.22
2023-02-14T00:48:13.041Z,103125.88
2023-02-14T00:50:39.704Z,103120.53
2023-02-14T00:53:06.501Z,103126.75
2023-02-14T00:55:33.284Z,103128.56
2023-02-14T00:57:59.728Z,103126.88
2023-02-14T01:00:26.177Z,103128.56
2023-02-14T01:02:52.779Z,103122.38
2023-02-14T01:05:19.473Z,103107.28
2023-02-14T01:07:46.056Z,103110.97
2023-02-14T01:10:12.642Z,103111.13
2023-02-14T01:12:39.388Z,103107.63
2023-02-14T01:15:05.856Z,103108.59
2023-02-14T01:17:32.387Z,103105.91
2023-02-14T01:19:58.842Z,103115.94
2023-02-14T01:22:25.467Z,103112.13
2023-02-14T01:24:51.974Z,103104.06
2023-02-14T01:27:18.677Z,103105.22
2023-02-14T01:29:45.462Z,103112.28
2023-02-14T01:32:12.063Z,103105.22
2023-02-14T01:34:39.209Z,103098.06
2023-02-14T01:37:05.961Z,103099.88
2023-02-14T01:39:32.390Z,103099.03
2023-02-14T01:41:59.294Z,103085.63
2023-02-14T01:44:26.056Z,103086.63
2023-02-14T01:46:52.478Z,103081.41
2023-02-14T01:49:19.196Z,103080.44
2023-02-14T01:51:45.830Z,103075.41
2023-02-14T01:54:12.227Z,103074.38
2023-02-14T01:56:39.277Z,103072.56
2023-02-14T01:59:06.025Z,103066.34
2023-02-14T02:01:32.461Z,103074.38
2023-02-14T02:03:58.981Z,103073.53
2023-02-14T02:06:25.673Z,103070.03
2023-02-14T02:08:54.247Z,103077.06
2023-02-14T02:11:20.637Z,103080.91
2023-02-14T02:13:47.987Z,103071.88
2023-02-14T02:16:14.666Z,103079.91
2023-02-14T02:18:41.627Z,103078.06
2023-02-14T02:21:08.106Z,103077.22
2023-02-14T02:23:34.726Z,103079.91
2023-02-14T02:26:01.178Z,103079.22
2023-02-14T02:28:27.676Z,103088.09
2023-02-14T02:30:54.216Z,103082.91
2023-02-14T02:33:21.007Z,103085.59
2023-02-14T02:35:47.510Z,103086.56
2023-02-14T02:38:14.400Z,103088.41
2023-02-14T02:40:41.256Z,103082.06
2023-02-14T02:43:07.780Z,103087.41
2023-02-14T02:45:34.395Z,103078.38
2023-02-14T02:48:00.856Z,103077.69
2023-02-14T02:50:27.919Z,103066.13
2023-02-14T02:52:54.452Z,103076.84
2023-02-14T02:55:22.030Z,103069.66
2023-02-14T02:57:48.381Z,103072.50
2023-02-14T03:00:15.497Z,103074.31
2023-02-14T03:02:42.275Z,103078.66
2023-02-14T03:05:08.990Z,103081.53
2023-02-14T03:07:35.826Z,103084.03
2023-02-14T03:10:02.503Z,103090.41
2023-02-14T03:12:29.205Z,103092.25
2023-02-14T03:14:56.229Z,103088.72
2023-02-14T03:17:22.801Z,103090.53
2023-02-14T03:19:49.240Z,103091.53
2023-02-14T03:22:15.735Z,103085.19
2023-02-14T03:24:42.283Z,103086.19
2023-02-14T03:27:09.269Z,103089.00
2023-02-14T03:29:35.922Z,103087.03
2023-02-14T03:32:02.919Z,103083.50
2023-02-14T03:34:29.913Z,103082.66
2023-02-14T03:36:56.966Z,103086.34
2023-02-14T03:39:24.266Z,103081.13
2023-02-14T03:41:50.772Z,103079.47
2023-02-14T03:44:17.148Z,103072.44
2023-02-14T03:46:43.633Z,103077.78
2023-02-14T03:49:10.299Z,103072.28
2023-02-14T03:51:37.243Z,103067.91
2023-02-14T03:54:03.718Z,103077.78
2023-02-14T03:56:30.234Z,103084.00
2023-02-14T03:58:56.820Z,103079.59
2023-02-14T04:01:23.370Z,103076.78
2023-02-14T04:03:50.191Z,103082.28
2023-02-14T04:06:17.130Z,103078.78
2023-02-14T04:08:43.643Z,103078.78
2023-02-14T04:11:10.314Z,103080.59
2023-02-14T04:13:36.869Z,103081.63
2023-02-14T04:16:03.397Z,103074.41
2023-02-14T04:18:29.888Z,103078.94
2023-02-14T04:20:56.261Z,103087.78
2023-02-14T04:23:22.661Z,103079.75
2023-02-14T04:25:49.114Z,103070.03
2023-02-14T04:28:16.119Z,103072.88
2023-02-14T04:30:42.709Z,103075.56
2023-02-14T04:33:09.393Z,103065.84
2023-02-14T04:35:36.103Z,103064.84
2023-02-14T04:38:02.734Z,103067.50
2023-02-14T04:40:29.630Z,103065.69
2023-02-14T04:42:56.380Z,103061.34
2023-02-14T04:45:23.131Z,103060.47
2023-02-14T04:47:49.503Z,103060.63
2023-02-14T04:50:16.004Z,103061.50
2023-02-14T04:52:42.585Z,103059.81
2023-02-14T04:55:09.108Z,103054.47
2023-02-14T04:57:35.726Z,103046.44
2023-02-14T05:00:02.194Z,103045.72
2023-02-14T05:02:28.903Z,103052.59
2023-02-14T05:04:55.378Z,103043.91
2023-02-14T05:07:21.764Z,103044.03
2023-02-14T05:09:48.285Z,103047.41
2023-02-14T05:12:14.908Z,103049.41
2023-02-14T05:14:41.382Z,103052.94
2023-02-14T05:17:07.962Z,103054.75
2023-02-14T05:19:34.430Z,103044.19
2023-02-14T05:22:00.885Z,103045.88
2023-02-14T05:24:27.353Z,103044.03
2023-02-14T05:26:54.621Z,103044.19
2023-02-14T05:29:21.108Z,103044.19
2023-02-14T05:31:48.209Z,103040.50
2023-02-14T05:34:15.129Z,103040.84
2023-02-14T05:36:42.412Z,103035.50
2023-02-14T05:39:08.821Z,103039.00
2023-02-14T05:41:35.210Z,103038.16
2023-02-14T05:44:01.906Z,103034.63
2023-02-14T05:46:28.748Z,103034.50
2023-02-14T05:48:55.083Z,103035.63
2023-02-14T05:51:21.648Z,103038.16
2023-02-14T05:53:48.283Z,103038.31
2023-02-14T05:56:15.189Z,103040.13
2023-02-14T05:58:41.916Z,103043.53
2023-02-14T06:01:08.924Z,103037.31
2023-02-14T06:03:35.377Z,103035.63
2023-02-14T06:06:02.182Z,103038.31
2023-02-14T06:08:28.641Z,103038.31
2023-02-14T06:10:55.113Z,103043.66
2023-02-14T06:13:21.616Z,103042.97
2023-02-14T06:15:48.518Z,103045.50
2023-02-14T06:18:15.522Z,103050.31
2023-02-14T06:20:42.077Z,103051.72
2023-02-14T06:23:08.527Z,103055.53
2023-02-14T06:25:35.331Z,103058.22
2023-02-14T06:28:02.114Z,103061.84
2023-02-14T06:30:29.126Z,103056.34
2023-02-14T06:32:55.617Z,103051.34
2023-02-14T06:35:22.093Z,103061.03
2023-02-14T06:37:48.640Z,103064.72
2023-02-14T06:40:15.147Z,103066.53
2023-02-14T06:42:41.749Z,103071.19
2023-02-14T06:45:08.148Z,103068.50
2023-02-14T06:47:35.277Z,103062.19
2023-02-14T06:50:01.777Z,103059.63
2023-02-14T06:52:28.297Z,103063.88
2023-02-14T06:54:54.884Z,103065.69
2023-02-14T06:57:21.463Z,103066.28
2023-02-14T06:59:47.863Z,103065.84
2023-02-14T07:02:14.322Z,103063.31
2023-02-14T07:04:40.877Z,103064.00
2023-02-14T07:07:07.418Z,103063.44
2023-02-14T07:09:33.908Z,103058.78
2023-02-14T07:12:00.330Z,103062.44
2023-02-14T07:14:26.715Z,103064.28
2023-02-14T07:16:53.221Z,103057.94
2023-02-14T07:19:19.654Z,103068.97
2023-02-14T07:21:46.198Z,103065.84
2023-02-14T07:24:12.624Z,103067.94
2023-02-14T07:26:39.128Z,103064.59
2023-02-14T07:29:05.625Z,103071.63
2023-02-14T07:31:32.222Z,103070.63
2023-02-14T07:33:58.744Z,103065.28
2023-02-14T07:36:25.199Z,103071.78
2023-02-14T07:38:51.661Z,103072.50
2023-02-14T07:41:18.539Z,103070.94
2023-02-14T07:43:45.118Z,103069.25
2023-02-14T07:46:11.636Z,103072.63
2023-02-14T07:48:38.123Z,103069.25
2023-02-14T07:51:04.590Z,103067.94
2023-02-14T07:53:30.975Z,103064.47
2023-02-14T07:55:57.421Z,103063.31
2023-02-14T07:58:24.204Z,103061.44
2023-02-14T08:00:50.676Z,103073.72
2023-02-14T08:03:17.172Z,103067.94
2023-02-14T08:05:43.749Z,103070.34
2023-02-14T08:08:10.238Z,103078.25
2023-02-14T08:10:36.728Z,103071.91
2023-02-14T08:13:03.216Z,103080.94
2023-02-14T08:15:29.659Z,103072.75
2023-02-14T08:17:58.612Z,103074.13
2023-02-14T08:20:25.111Z,103077.28
2023-02-14T08:22:51.699Z,103072.63
2023-02-14T08:25:18.128Z,103080.25
2023-02-14T08:27:44.584Z,103086.03
2023-02-14T08:30:11.562Z,103092.53
2023-02-14T08:32:38.603Z,103094.09
2023-02-14T08:35:05.697Z,103094.16
2023-02-14T08:37:32.406Z,103097.22
2023-02-14T08:39:58.883Z,103102.91
2023-02-14T08:42:25.313Z,103096.16
2023-02-14T08:44:51.952Z,103093.78
2023-02-14T08:47:18.384Z,103096.06
2023-02-14T08:49:45.048Z,103088.47
2023-02-14T08:52:11.609Z,103093.09
2023-02-14T08:54:37.982Z,103089.28
2023-02-14T08:57:04.358Z,103088.75
2023-02-14T08:59:30.772Z,103095.09
2023-02-14T09:01:57.317Z,103092.19
2023-02-14T09:04:23.822Z,103093.91
2023-02-14T09:06:50.555Z,103101.22
2023-02-14T09:09:17.200Z,103101.09
2023-02-14T09:11:43.907Z,103098.84
2023-02-14T09:14:10.366Z,103109.56
2023-02-14T09:16:37.009Z,103108.16
2023-02-14T09:19:05.723Z,103117.06
2023-02-14T09:21:32.102Z,103115.66
2023-02-14T09:23:58.571Z,103112.00
2023-02-14T09:26:25.082Z,103105.66
2023-02-14T09:28:51.490Z,103112.13
2023-02-14T09:31:17.946Z,103106.78
2023-02-14T09:33:44.480Z,103105.25
2023-02-14T09:36:10.975Z,103106.25
2023-02-14T09:38:37.429Z,103107.09
2023-02-14T09:41:04.040Z,103110.59
2023-02-14T09:43:30.568Z,103111.59
2023-02-14T09:45:57.119Z,103118.63
2023-02-14T09:48:23.810Z,103111.91
2023-02-14T09:50:50.394Z,103112.91
2023-02-14T09:53:16.728Z,103117.25
2023-02-14T09:55:43.452Z,103107.41
2023-02-14T09:58:09.998Z,103111.91
2023-02-14T10:00:36.493Z,103113.75
2023-02-14T10:03:03.233Z,103106.53
2023-02-14T10:05:29.902Z,103106.53
2023-02-14T10:07:56.316Z,103100.38
2023-02-14T10:10:22.798Z,103109.41
2023-02-14T10:12:49.353Z,103115.56
2023-02-14T10:15:15.849Z,103111.22
2023-02-14T10:17:42.432Z,103107.84
2023-02-14T10:20:08.943Z,103102.34
2023-02-14T10:22:35.401Z,103099.81
2023-02-14T10:25:01.879Z,103099.13
2023-02-14T10:27:28.247Z,103096.47
2023-02-14T10:29:55.515Z,103095.59
2023-02-14T10:32:22.167Z,103091.09
2023-02-14T10:34:48.746Z,103094.78
2023-02-14T10:37:15.142Z,103099.13
2023-02-14T10:39:41.600Z,103102.81
2023-02-14T10:42:08.009Z,103087.56
2023-02-14T10:44:34.334Z,103096.59
2023-02-14T10:47:00.636Z,103092.09
2023-02-14T10:49:27.181Z,103094.78
2023-02-14T10:51:53.571Z,103096.47
2023-02-14T10:54:20.003Z,103079.88
2023-02-14T10:56:46.584Z,103086.03
2023-02-14T10:59:13.221Z,103087.03
2023-02-14T11:01:39.871Z,103087.91
2023-02-14T11:04:06.385Z,103088.88
2023-02-14T11:06:32.701Z,103094.06
2023-02-14T11:08:59.075Z,103089.56
2023-02-14T11:11:25.431Z,103084.38
2023-02-14T11:13:51.817Z,103080.69
2023-02-14T11:16:18.620Z,103073.66
2023-02-14T11:18:45.515Z,103075.34
2023-02-14T11:21:23.121Z,103072.66
2023-02-14T11:23:50.534Z,103071.53
2023-02-14T11:26:17.312Z,103066.34
2023-02-14T11:28:43.845Z,103073.38
2023-02-14T11:31:10.446Z,103070.69
2023-02-14T11:33:37.176Z,103069.69
2023-02-14T11:36:03.896Z,103067.31
2023-02-14T11:38:30.273Z,103067.16
2023-02-14T11:40:57.126Z,103061.00
2023-02-14T11:43:23.622Z,103065.50
2023-02-14T11:45:50.188Z,103059.28
2023-02-14T11:48:22.045Z,103061.00
2023-02-14T11:50:51.417Z,103061.97
2023-02-14T11:53:18.018Z,103057.47
2023-02-14T11:55:44.635Z,103056.63
2023-02-14T11:58:11.069Z,103053.94
2023-02-14T12:00:37.558Z,103054.78
2023-02-14T12:03:04.128Z,103051.41
2023-02-14T12:05:30.538Z,103044.09
2023-02-14T12:07:57.256Z,103043.22
2023-02-14T12:10:23.768Z,103036.06
2023-02-14T12:12:50.372Z,103034.38
2023-02-14T12:15:16.810Z,103030.84
2023-02-14T12:17:43.248Z,103036.22
2023-02-14T12:20:09.950Z,103025.50
2023-02-14T12:22:36.656Z,103025.13
2023-02-14T12:25:03.150Z,103024.13
2023-02-14T12:27:29.597Z,103022.97
2023-02-14T12:29:56.122Z,103017.63
2023-02-14T12:32:22.630Z,103014.94
2023-02-14T12:34:49.077Z,103017.63
2023-02-14T12:37:15.668Z,103012.28
2023-02-14T12:39:42.307Z,103001.56
2023-02-14T12:42:08.940Z,102989.03
2023-02-14T12:44:35.488Z,102991.88
2023-02-14T12:47:02.051Z,102993.69
2023-02-14T12:49:28.525Z,102989.63
2023-02-14T12:51:55.031Z,102989.63
2023-02-14T12:54:21.493Z,102979.63
2023-02-14T12:56:48.156Z,102978.63
2023-02-14T12:59:14.685Z,102977.63
2023-02-14T13:01:41.123Z,102976.81
2023-02-14T13:04:07.720Z,102968.09
2023-02-14T13:06:34.529Z,102965.56
2023-02-14T13:09:01.297Z,102959.38
2023-02-14T13:11:27.808Z,102961.91
2023-02-14T13:13:54.345Z,102962.44
2023-02-14T13:16:20.997Z,102957.59
2023-02-14T13:18:47.535Z,102959.00
2023-02-14T13:21:13.941Z,102959.34
2023-02-14T13:23:40.420Z,102952.72
2023-02-14T13:26:06.755Z,102943.06
2023-02-14T13:28:33.672Z,102945.97
2023-02-14T13:31:00.693Z,102954.25
2023-02-14T13:33:27.598Z,102950.78
2023-02-14T13:35:54.189Z,102950.84
2023-02-14T13:38:21.181Z,102949.22
2023-02-14T13:40:47.601Z,102947.78
2023-02-14T13:43:14.041Z,102949.50
2023-02-14T13:45:41.169Z,102941.66
2023-02-14T13:48:07.597Z,102946.91
2023-02-14T13:50:35.099Z,102943.44
2023-02-14T13:53:01.920Z,102936.44
2023-02-14T13:55:28.571Z,102943.50
2023-02-14T13:57:55.151Z,102938.34
2023-02-14T14:00:21.575Z,102942.72
2023-02-14T14:02:48.081Z,102945.44
2023-02-14T14:05:14.435Z,102946.28
2023-02-14T14:07:40.780Z,102936.47
2023-02-14T14:10:07.160Z,102941.88
2023-02-14T14:12:34.834Z,102936.50
2023-02-14T14:15:01.140Z,102940.88
2023-02-14T14:17:27.838Z,102941.72
2023-02-14T14:19:54.292Z,102930.16
2023-02-14T14:22:20.658Z,102938.22
2023-02-14T14:24:47.107Z,102925.13
2023-02-14T14:27:13.631Z,102930.31
2023-02-14T14:29:40.332Z,102928.81
2023-02-14T14:32:06.728Z,102919.91
2023-02-14T14:34:33.214Z,102929.16
2023-02-14T14:36:59.600Z,102925.59
2023-02-14T14:39:26.136Z,102932.84
2023-02-14T14:41:52.729Z,102935.88
2023-02-14T14:44:19.441Z,102921.75
2023-02-14T14:46:45.963Z,102928.28
2023-02-14T14:49:12.576Z,102919.72
2023-02-14T14:51:39.150Z,102917.19
2023-02-14T14:54:05.735Z,102924.53
2023-02-14T14:56:32.491Z,102914.09
2023-02-14T14:58:59.123Z,102922.31
2023-02-14T15:01:25.871Z,102912.88
2023-02-14T15:03:52.416Z,102908.84
2023-02-14T15:06:19.015Z,102902.94
2023-02-14T15:08:46.682Z,102904.13
2023-02-14T15:11:13.030Z,102899.38
2023-02-14T15:13:39.818Z,102903.41
2023-02-14T15:16:06.306Z,102891.44
2023-02-14T15:18:32.754Z,102881.16
2023-02-14T15:20:59.593Z,102880.81
2023-02-14T15:23:26.192Z,102876.28
2023-02-14T15:25:52.548Z,102869.72
2023-02-14T15:28:19.058Z,102873.91
2023-02-14T15:30:45.492Z,102866.47
2023-02-14T15:33:12.267Z,102869.00
2023-02-14T15:35:38.868Z,102858.22
2023-02-14T15:38:05.562Z,102870.47
2023-02-14T15:40:31.935Z,102863.25
2023-02-14T15:42:58.480Z,102860.56
2023-02-14T15:45:24.843Z,102861.41
2023-02-14T15:47:51.263Z,102861.41
2023-02-14T15:50:17.633Z,102856.22
2023-02-14T15:52:44.043Z,102859.72
2023-02-14T15:55:10.572Z,102856.22
2023-02-14T15:57:37.157Z,102852.03
2023-02-14T16:00:03.609Z,102851.19
2023-02-14T16:02:30.039Z,102857.41
2023-02-14T16:04:56.816Z,102862.97
2023-02-14T16:07:23.152Z,102855.06
2023-02-14T16:09:49.956Z,102855.06
2023-02-14T16:12:16.995Z,102863.31
2023-02-14T16:14:43.331Z,102854.38
2023-02-14T16:17:09.855Z,102865.16
2023-02-14T16:19:36.905Z,102860.78
2023-02-14T16:22:03.397Z,102856.44
2023-02-14T16:24:29.882Z,102854.78
2023-02-14T16:26:56.438Z,102849.38
2023-02-14T16:29:22.803Z,102861.34
2023-02-14T16:32:12.089Z,102850.75
2023-02-14T16:34:35.518Z,102847.22
2023-02-14T16:37:02.030Z,102845.56
2023-02-14T16:39:28.480Z,102851.94
2023-02-14T16:41:55.307Z,102852.94
2023-02-14T16:44:22.050Z,102847.38
2023-02-14T16:46:48.709Z,102840.50
2023-02-14T16:49:15.098Z,102843.38
2023-02-14T16:51:41.548Z,102851.44
2023-02-14T16:54:08.158Z,102847.94
2023-02-14T16:56:34.521Z,102845.59
2023-02-14T16:59:00.851Z,102845.59
2023-02-14T17:01:27.230Z,102848.47
2023-02-14T17:03:53.695Z,102846.63
2023-02-14T17:06:20.055Z,102855.72
2023-02-14T17:08:46.532Z,102846.97
2023-02-14T17:11:12.819Z,102845.28
2023-02-14T17:13:41.071Z,102847.97
2023-02-14T17:16:07.714Z,102837.56
2023-02-14T17:18:34.181Z,102844.81
2023-02-14T17:21:01.093Z,102840.25
2023-02-14T17:23:28.073Z,102840.44
2023-02-14T17:25:54.668Z,102841.44
2023-02-14T17:28:21.014Z,102840.59
2023-02-14T17:30:47.463Z,102838.94
2023-02-14T17:33:14.316Z,102847.00
2023-02-14T17:35:40.944Z,102843.66
2023-02-14T17:38:07.332Z,102836.59
2023-02-14T17:40:33.702Z,102837.59
2023-02-14T17:43:00.276Z,102844.00
2023-02-14T17:45:26.758Z,102845.84
2023-02-14T17:47:53.084Z,102839.66
2023-02-14T17:50:19.643Z,102835.47
2023-02-14T17:52:46.308Z,102835.63
2023-02-14T17:55:12.869Z,102839.13
2023-02-14T17:57:39.280Z,102840.16
2023-02-14T18:00:05.750Z,102833.97
2023-02-14T18:02:32.104Z,102828.94
2023-02-14T18:04:58.667Z,102822.53
2023-02-14T18:07:25.034Z,102834.31
2023-02-14T18:09:51.521Z,102833.84
2023-02-14T18:12:18.280Z,102825.56
2023-02-14T18:14:45.144Z,102823.56
2023-02-14T18:17:11.855Z,102827.41
2023-02-14T18:19:38.841Z,102835.28
2023-02-14T18:22:05.395Z,102826.03
2023-02-14T18:24:31.834Z,102828.00
2023-02-14T18:26:58.350Z,102829.81
2023-02-14T18:29:24.944Z,102829.94
2023-02-14T18:31:51.341Z,102831.75
2023-02-14T18:34:18.058Z,102826.50
2023-02-14T18:36:44.833Z,102816.03
2023-02-14T18:39:11.409Z,102816.78
2023-02-14T18:41:37.789Z,102817.94
2023-02-14T18:44:04.591Z,102809.38
2023-02-14T18:46:31.003Z,102803.59
2023-02-14T18:48:57.564Z,102808.47
2023-02-14T18:51:24.089Z,102803.38
2023-02-14T18:53:50.399Z,102807.09
2023-02-14T18:56:16.747Z,102803.19
2023-02-14T18:58:43.089Z,102798.84
2023-02-14T19:01:09.571Z,102801.53
2023-02-14T19:03:36.535Z,102793.91
2023-02-14T19:06:03.154Z,102795.56
2023-02-14T19:08:29.465Z,102794.59
2023-02-14T19:10:56.181Z,102786.97
2023-02-14T19:13:22.692Z,102791.16
2023-02-14T19:15:49.818Z,102785.22
2023-02-14T19:18:16.400Z,102776.94
2023-02-14T19:20:42.906Z,102776.22
2023-02-14T19:23:09.618Z,102781.25
2023-02-14T19:25:36.407Z,102771.97
2023-02-14T19:28:03.276Z,102771.41
2023-02-14T19:30:30.230Z,102762.13
2023-02-14T19:32:57.190Z,102767.78
2023-02-14T19:35:23.884Z,102768.25
2023-02-14T19:37:50.302Z,102769.38
2023-02-14T19:40:16.782Z,102776.06
2023-02-14T19:42:43.667Z,102767.59
2023-02-14T19:45:10.013Z,102772.63
2023-02-14T19:47:46.514Z,102770.19
2023-02-14T19:50:14.220Z,102762.56
2023-02-14T19:52:40.895Z,102765.75
2023-02-14T19:55:07.450Z,102760.81
2023-02-14T19:57:33.883Z,102765.00
2023-02-14T20:00:00.557Z,102765.28
2023-02-14T20:02:27.252Z,102763.25
2023-02-14T20:04:53.879Z,102758.69
2023-02-14T20:07:20.574Z,102761.69
2023-02-14T20:09:47.014Z,102751.72
2023-02-14T20:12:13.479Z,102759.25
2023-02-14T20:14:50.980Z,102756.19
2023-02-14T20:17:18.107Z,102752.44
2023-02-14T20:19:45.171Z,102750.03
2023-02-14T20:22:11.560Z,102740.09
2023-02-14T20:24:38.423Z,102741.09
2023-02-14T20:27:04.884Z,102729.66
2023-02-14T20:29:31.732Z,102733.00
2023-02-14T20:31:58.287Z,102731.78
2023-02-14T20:34:24.721Z,102729.94
2023-02-14T20:36:51.098Z,102727.03
2023-02-14T20:39:17.408Z,102720.44
2023-02-14T20:41:44.036Z,102716.97
2023-02-14T20:44:10.404Z,102716.97
2023-02-14T20:46:37.059Z,102703.09
2023-02-14T20:49:03.628Z,102705.25
2023-02-14T20:51:30.051Z,102700.09
2023-02-14T20:53:56.917Z,102701.69
2023-02-14T20:56:24.018Z,102699.44
2023-02-14T20:58:50.414Z,102701.88
2023-02-14T21:01:17.113Z,102696.56
2023-02-14T21:03:47.780Z,102699.50
2023-02-14T21:06:16.238Z,102698.31
2023-02-14T21:08:42.692Z,102708.31
2023-02-14T21:11:09.500Z,102699.66
2023-02-14T21:13:36.452Z,102701.75
2023-02-14T21:16:03.228Z,102698.69
2023-02-14T21:18:29.879Z,102691.69
2023-02-14T21:20:56.912Z,102695.19
2023-02-14T21:23:23.745Z,102700.19
2023-02-14T21:25:50.282Z,102696.91
2023-02-14T21:28:17.223Z,102695.25
2023-02-14T21:30:43.983Z,102700.09
2023-02-14T21:33:10.614Z,102692.81
2023-02-14T21:35:37.054Z,102690.34
2023-02-14T21:38:03.667Z,102690.59
2023-02-14T21:40:30.087Z,102692.50
2023-02-14T21:42:57.124Z,102688.75
2023-02-14T21:45:23.885Z,102687.56
2023-02-14T21:47:50.365Z,102680.06
2023-02-14T21:50:16.915Z,102681.34
2023-02-14T21:52:46.094Z,102683.81
2023-02-14T21:55:13.022Z,102683.41
2023-02-14T21:57:40.020Z,102680.75
2023-02-14T22:00:06.986Z,102683.00
2023-02-14T22:02:33.379Z,102676.19
2023-02-14T22:05:00.959Z,102680.81
2023-02-14T22:07:27.858Z,102682.66
2023-02-14T22:09:54.278Z,102681.06
2023-02-14T22:12:20.989Z,102677.94
2023-02-14T22:14:47.324Z,102673.75
2023-02-14T22:17:14.311Z,102674.22
2023-02-14T22:19:41.132Z,102667.41
2023-02-14T22:22:08.052Z,102663.66
2023-02-14T22:24:34.603Z,102666.97
2023-02-14T22:27:01.144Z,102668.00
2023-02-14T22:29:27.507Z,102660.75
2023-02-14T22:31:54.403Z,102661.78
2023-02-14T22:34:21.038Z,102659.47
2023-02-14T22:36:47.812Z,102659.69
2023-02-14T22:39:14.485Z,102644.25
2023-02-14T22:41:40.928Z,102655.28
2023-02-14T22:44:08.786Z,102649.34
2023-02-14T22:46:35.558Z,102639.31
2023-02-14T22:49:02.082Z,102639.13
2023-02-14T22:51:28.997Z,102636.44
2023-02-14T22:53:55.635Z,102631.03
2023-02-14T22:56:22.652Z,102628.34
2023-02-14T22:58:49.498Z,102627.69
2023-02-14T23:01:16.274Z,102628.53
2023-02-14T23:03:42.852Z,102623.13
2023-02-14T23:06:09.909Z,102626.63
2023-02-14T23:08:36.299Z,102620.44
2023-02-14T23:11:03.069Z,102621.25
2023-02-14T23:13:30.101Z,102619.59
2023-02-14T23:15:56.748Z,102620.25
2023-02-14T23:18:28.904Z,102611.50
2023-02-14T23:20:55.739Z,102607.31
2023-02-14T23:23:22.426Z,102599.41
2023-02-14T23:25:49.384Z,102608.34
2023-02-14T23:28:16.341Z,102608.56
2023-02-14T23:30:42.741Z,102601.69
2023-02-14T23:33:09.335Z,102590.25
2023-02-14T23:35:36.122Z,102592.94
2023-02-14T23:38:02.961Z,102585.88
2023-02-14T23:40:29.434Z,102582.94
2023-02-14T23:42:55.982Z,102583.31
2023-02-14T23:45:22.510Z,102587.91
2023-02-14T23:47:49.010Z,102584.97
2023-02-14T23:50:15.394Z,102584.13
2023-02-14T23:52:41.963Z,102584.97
2023-02-14T23:55:08.674Z,102586.56
2023-02-14T23:57:35.268Z,102583.63
